Fresno Yosemite International Airport
KFAT : rendu visible

Aérodrome :











RETROUVEZ-NOUS SUR...

 
LOGIN :

S'inscrire | Disclaimer

   EN    FR    IT 

 









Légende :    VFR   VFR Marginal   IFR   IFR Intensif   IFR Très Intensif
Visi : 
Plafond : 
>= 8 km
>= 3000ft
5 à 8 km
1000 à 3000 ft
1500m à 5 km
500 à 1000 ft
800 à 1500m
200 à 500 ft
< 800m
< 200 ft
Symboles :   Orages  Brouillard  Fortes neiges  Fortes précipitations  Vent > 20 kt






- Altitude de l'aérodrome : 336 ft
- Code IATA : FAT


KFAT - Fresno Yosemite International

DERNIER METAR :
  • 192353Z 05005KT 5SM HZ BKN130 BKN200 10/06 A3012 RMK AO2 SLP198 T01000056 10100 20067 56021

METARs EXPIRÉS :
  • 192253Z 00000KT 5SM HZ FEW100 SCT130 BKN180 09/05 A3013 RMK AO2 SLP204 T00940050
  • 192153Z 16003KT 4SM HZ CLR 09/06 A3015 RMK AO2 SLP210 T00890056
  • 192134Z 00000KT 4SM HZ SCT010 08/05 A3015 RMK AO2 T00830050
  • 192127Z 14003KT 4SM HZ BKN010 08/06 A3015 RMK AO2 T00830056

TAF KFAT
Valide du 20 à 00h jusqu'au 21 à 00h UTC


192326Z 2000/2024 VRB03KT 4SM HZ FEW100 OVC200
FM200700 09002KT 2SM BR OVC003
FM201900 VRB03KT 4SM BR OVC006
FM202100 31004KT 6SM HZ SCT010 BKN150



MET'MAP, la Météo Aéronautique d'un coup d'oeil ! - Copyright ORBIFLY Décembre 2007 - Disclaimer

ORBIFLY MET'MAP TEAM :

Programmation & Développement : Alexandra Zaïnal
Sur une idée originale de : Baudouin d'Aumeries
Assistance à la programmation : Marc-Olivier Méhu
Soutien technique & logistique : Manuel Goepfert

Contact : metmap@orbifly.com




SOURCES & CREDITS :

   NOAA       Earth
Advisory